createdAt,value
2022-10-01T00:01:16.231Z,95907.78
2022-10-01T00:03:43.092Z,95902.38
2022-10-01T00:06:14.441Z,95906.06
2022-10-01T00:08:42.566Z,95897.75
2022-10-01T00:11:09.531Z,95901.81
2022-10-01T00:13:36.423Z,95903.59
2022-10-01T00:16:06.865Z,95894.31
2022-10-01T00:18:36.193Z,95894.53
2022-10-01T00:21:07.248Z,95897.03
2022-10-01T00:23:33.624Z,95895.09
2022-10-01T00:26:19.234Z,95889.50
2022-10-01T00:28:47.743Z,95899.41
2022-10-01T00:31:15.849Z,95901.31
2022-10-01T00:33:43.148Z,95901.78
2022-10-01T00:36:10.818Z,95902.00
2022-10-01T00:38:39.737Z,95900.59
2022-10-01T00:41:08.152Z,95903.16
2022-10-01T00:43:37.774Z,95896.59
2022-10-01T00:46:18.905Z,95897.91
2022-10-01T00:49:11.202Z,95893.34
2022-10-01T00:51:43.058Z,95893.97
2022-10-01T00:54:17.055Z,95893.28
2022-10-01T00:56:44.966Z,95890.09
2022-10-01T00:59:12.746Z,95893.28
2022-10-01T01:01:39.246Z,95881.22
2022-10-01T01:04:16.862Z,95882.16
2022-10-01T01:06:56.124Z,95890.06
2022-10-01T01:09:30.438Z,95887.22
2022-10-01T01:12:26.204Z,95888.69
2022-10-01T01:15:10.882Z,95897.03
2022-10-01T01:18:03.019Z,95891.47
2022-10-01T01:20:42.635Z,95883.28
2022-10-01T01:23:15.100Z,95881.81
2022-10-01T01:25:58.352Z,95879.94
2022-10-01T01:28:38.117Z,95895.25
2022-10-01T01:31:13.120Z,95879.72
2022-10-01T01:33:44.111Z,95871.75
2022-10-01T01:36:18.567Z,95875.53
2022-10-01T01:38:52.136Z,95879.34
2022-10-01T01:41:20.796Z,95879.34
2022-10-01T01:43:51.276Z,95883.69
2022-10-01T01:46:19.469Z,95873.78
2022-10-01T01:48:49.965Z,95868.31
2022-10-01T01:51:45.877Z,95875.59
2022-10-01T01:54:12.421Z,95868.50
2022-10-01T01:56:38.905Z,95875.22
2022-10-01T01:59:05.977Z,95857.22
2022-10-01T02:01:39.899Z,95852.63
2022-10-01T02:04:23.968Z,95853.75
2022-10-01T02:07:08.016Z,95852.13
2022-10-01T02:09:56.045Z,95852.13
2022-10-01T02:12:43.585Z,95851.25
2022-10-01T02:15:24.783Z,95843.38
2022-10-01T02:18:03.068Z,95843.50
2022-10-01T02:20:36.664Z,95850.31
2022-10-01T02:23:09.996Z,95842.53
2022-10-01T02:25:43.625Z,95835.03
2022-10-01T02:28:15.608Z,95837.09
2022-10-01T02:30:45.411Z,95832.78
2022-10-01T02:33:15.239Z,95842.41
2022-10-01T02:35:45.815Z,95842.16
2022-10-01T02:38:15.206Z,95835.47
2022-10-01T02:40:44.938Z,95838.91
2022-10-01T02:43:18.117Z,95834.06
2022-10-01T02:45:50.453Z,95835.53
2022-10-01T02:48:18.305Z,95831.63
2022-10-01T02:50:49.345Z,95833.66
2022-10-01T02:53:27.748Z,95829.50
2022-10-01T02:55:56.924Z,95827.25
2022-10-01T02:58:23.678Z,95824.25
2022-10-01T03:00:50.003Z,95831.59
2022-10-01T03:03:16.763Z,95827.41
2022-10-01T03:05:43.091Z,95821.94
2022-10-01T03:08:09.408Z,95821.78
2022-10-01T03:10:36.153Z,95821.72
2022-10-01T03:13:02.913Z,95828.63
2022-10-01T03:15:29.529Z,95824.81
2022-10-01T03:17:56.163Z,95822.56
2022-10-01T03:20:23.023Z,95815.91
2022-10-01T03:22:49.603Z,95823.22
2022-10-01T03:25:16.316Z,95833.59
2022-10-01T03:27:43.703Z,95827.75
2022-10-01T03:30:10.659Z,95832.22
2022-10-01T03:32:37.435Z,95820.66
2022-10-01T03:35:04.733Z,95819.03
2022-10-01T03:37:31.080Z,95820.47
2022-10-01T03:39:57.464Z,95816.03
2022-10-01T03:42:25.571Z,95808.13
2022-10-01T03:44:52.890Z,95807.31
2022-10-01T03:47:19.659Z,95804.47
2022-10-01T03:49:45.954Z,95804.09
2022-10-01T03:52:12.527Z,95807.38
2022-10-01T03:54:39.797Z,95805.97
2022-10-01T03:57:07.131Z,95804.41
2022-10-01T03:59:33.426Z,95803.31
2022-10-01T04:01:59.849Z,95808.41
2022-10-01T04:04:29.141Z,95810.31
2022-10-01T04:06:55.575Z,95804.44
2022-10-01T04:09:21.961Z,95809.88
2022-10-01T04:11:49.012Z,95815.97
2022-10-01T04:14:15.769Z,95814.16
2022-10-01T04:16:42.636Z,95802.59
2022-10-01T04:19:09.027Z,95792.50
2022-10-01T04:21:36.769Z,95795.56
2022-10-01T04:24:05.445Z,95793.38
2022-10-01T04:26:31.858Z,95789.13
2022-10-01T04:28:58.244Z,95784.50
2022-10-01T04:31:25.132Z,95772.53
2022-10-01T04:33:56.105Z,95785.97
2022-10-01T04:36:23.737Z,95777.03
2022-10-01T04:39:00.860Z,95767.91
2022-10-01T04:41:30.680Z,95762.63
2022-10-01T04:44:00.091Z,95764.44
2022-10-01T04:46:27.958Z,95766.09
2022-10-01T04:48:54.317Z,95777.25
2022-10-01T04:51:21.325Z,95777.88
2022-10-01T04:53:47.728Z,95773.84
2022-10-01T04:56:14.425Z,95774.47
2022-10-01T04:58:41.753Z,95776.94
2022-10-01T05:01:08.544Z,95781.19
2022-10-01T05:03:35.327Z,95777.34
2022-10-01T05:06:02.248Z,95775.28
2022-10-01T05:08:29.287Z,95779.81
2022-10-01T05:10:55.613Z,95786.72
2022-10-01T05:13:22.384Z,95791.03
2022-10-01T05:15:51.982Z,95786.13
2022-10-01T05:18:18.980Z,95782.13
2022-10-01T05:20:46.167Z,95786.59
2022-10-01T05:23:12.535Z,95794.72
2022-10-01T05:25:38.868Z,95790.44
2022-10-01T05:28:06.086Z,95800.03
2022-10-01T05:30:34.430Z,95791.72
2022-10-01T05:33:03.727Z,95784.81
2022-10-01T05:35:30.614Z,95778.13
2022-10-01T05:37:59.437Z,95785.44
2022-10-01T05:40:28.614Z,95779.16
2022-10-01T05:43:00.396Z,95771.84
2022-10-01T05:45:28.154Z,95771.44
2022-10-01T05:48:03.476Z,95774.69
2022-10-01T05:50:32.329Z,95777.50
2022-10-01T05:52:59.623Z,95787.84
2022-10-01T05:55:27.459Z,95787.22
2022-10-01T05:57:58.770Z,95766.53
2022-10-01T06:00:28.457Z,95782.38
2022-10-01T06:02:56.863Z,95770.78
2022-10-01T06:05:23.616Z,95772.59
2022-10-01T06:07:51.071Z,95771.38
2022-10-01T06:10:18.263Z,95781.53
2022-10-01T06:12:44.693Z,95782.16
2022-10-01T06:15:12.805Z,95785.00
2022-10-01T06:17:44.693Z,95777.28
2022-10-01T06:20:16.406Z,95775.06
2022-10-01T06:22:43.955Z,95776.69
2022-10-01T06:25:12.552Z,95779.97
2022-10-01T06:27:40.162Z,95764.91
2022-10-01T06:30:07.687Z,95775.09
2022-10-01T06:32:35.179Z,95767.38
2022-10-01T06:35:02.675Z,95763.69
2022-10-01T06:37:29.811Z,95761.88
2022-10-01T06:39:56.195Z,95749.91
2022-10-01T06:42:22.982Z,95744.00
2022-10-01T06:44:49.297Z,95746.25
2022-10-01T06:47:15.605Z,95736.69
2022-10-01T06:49:45.640Z,95738.13
2022-10-01T06:52:32.682Z,95735.28
2022-10-01T06:55:01.718Z,95728.38
2022-10-01T06:57:28.780Z,95726.34
2022-10-01T06:59:55.491Z,95717.44
2022-10-01T07:02:29.204Z,95734.50
2022-10-01T07:04:59.414Z,95730.81
2022-10-01T07:07:31.358Z,95723.53
2022-10-01T07:09:58.780Z,95725.56
2022-10-01T07:12:26.380Z,95727.97
2022-10-01T07:14:53.577Z,95725.56
2022-10-01T07:17:20.760Z,95720.66
2022-10-01T07:19:47.083Z,95723.09
2022-10-01T07:22:14.107Z,95721.06
2022-10-01T07:24:40.474Z,95722.50
2022-10-01T07:27:07.585Z,95722.69
2022-10-01T07:29:34.495Z,95718.41
2022-10-01T07:32:01.818Z,95712.53
2022-10-01T07:34:30.874Z,95717.81
2022-10-01T07:36:57.545Z,95725.13
2022-10-01T07:39:24.069Z,95722.09
2022-10-01T07:41:51.409Z,95725.53
2022-10-01T07:44:19.371Z,95722.06
2022-10-01T07:46:47.108Z,95716.78
2022-10-01T07:49:13.897Z,95718.78
2022-10-01T07:51:40.823Z,95715.34
2022-10-01T07:54:07.289Z,95707.41
2022-10-01T07:56:33.608Z,95704.34
2022-10-01T07:59:00.275Z,95697.84
2022-10-01T08:01:26.902Z,95704.09
2022-10-01T08:03:54.149Z,95724.00
2022-10-01T08:06:25.392Z,95714.44
2022-10-01T08:08:52.098Z,95719.34
2022-10-01T08:11:18.401Z,95716.44
2022-10-01T08:13:48.530Z,95715.19
2022-10-01T08:16:14.907Z,95710.31
2022-10-01T08:18:41.291Z,95713.97
2022-10-01T08:21:08.760Z,95715.97
2022-10-01T08:23:35.219Z,95707.22
2022-10-01T08:26:07.757Z,95715.13
2022-10-01T08:28:35.355Z,95718.38
2022-10-01T08:31:10.196Z,95720.81
2022-10-01T08:33:37.982Z,95703.91
2022-10-01T08:36:08.242Z,95711.84
2022-10-01T08:38:36.064Z,95693.50
2022-10-01T08:41:30.016Z,95701.66
2022-10-01T08:43:59.102Z,95699.81
2022-10-01T08:46:30.283Z,95709.94
2022-10-01T08:49:23.719Z,95716.63
2022-10-01T08:52:03.449Z,95720.09
2022-10-01T08:54:36.344Z,95711.13
2022-10-01T08:57:06.415Z,95710.94
2022-10-01T08:59:49.133Z,95702.19
2022-10-01T09:02:26.253Z,95714.00
2022-10-01T09:05:01.491Z,95715.38
2022-10-01T09:07:46.904Z,95708.53
2022-10-01T09:10:32.067Z,95703.41
2022-10-01T09:13:08.655Z,95703.81
2022-10-01T09:15:44.791Z,95719.09
2022-10-01T09:18:29.969Z,95722.34
2022-10-01T09:20:58.110Z,95711.75
2022-10-01T09:23:31.887Z,95731.31
2022-10-01T09:26:02.044Z,95725.41
2022-10-01T09:28:35.189Z,95728.47
2022-10-01T09:31:21.325Z,95715.97
2022-10-01T09:34:12.419Z,95717.44
2022-10-01T09:37:01.910Z,95723.97
2022-10-01T09:39:34.198Z,95714.78
2022-10-01T09:42:00.740Z,95710.53
2022-10-01T09:44:29.557Z,95715.00
2022-10-01T09:46:56.795Z,95710.69
2022-10-01T09:49:35.422Z,95710.91
2022-10-01T09:52:10.749Z,95714.59
2022-10-01T09:54:45.776Z,95706.41
2022-10-01T09:57:20.161Z,95693.78
2022-10-01T10:00:01.059Z,95700.53
2022-10-01T10:02:38.240Z,95696.59
2022-10-01T10:05:07.422Z,95698.66
2022-10-01T10:07:35.071Z,95698.66
2022-10-01T10:10:26.332Z,95715.72
2022-10-01T10:13:26.408Z,95721.63
2022-10-01T10:16:00.285Z,95726.75
2022-10-01T10:18:35.473Z,95732.44
2022-10-01T10:21:04.910Z,95725.94
2022-10-01T10:23:31.318Z,95741.41
2022-10-01T10:26:03.897Z,95738.56
2022-10-01T10:28:44.031Z,95742.81
2022-10-01T10:31:16.097Z,95745.09
2022-10-01T10:33:50.692Z,95745.22
2022-10-01T10:36:19.599Z,95740.56
2022-10-01T10:38:52.813Z,95743.41
2022-10-01T10:41:26.102Z,95744.22
2022-10-01T10:44:08.086Z,95740.94
2022-10-01T10:46:40.748Z,95738.50
2022-10-01T10:49:18.791Z,95744.19
2022-10-01T10:51:53.460Z,95748.66
2022-10-01T10:54:22.080Z,95752.34
2022-10-01T10:56:58.987Z,95758.00
2022-10-01T10:59:25.459Z,95753.72
2022-10-01T11:01:53.246Z,95756.97
2022-10-01T11:04:39.232Z,95755.13
2022-10-01T11:07:06.834Z,95750.97
2022-10-01T11:09:58.094Z,95764.69
2022-10-01T11:12:58.507Z,95768.16
2022-10-01T11:16:02.604Z,95771.03
2022-10-01T11:18:48.107Z,95766.75
2022-10-01T11:21:42.474Z,95766.75
2022-10-01T11:24:36.647Z,95772.81
2022-10-01T11:27:15.923Z,95754.84
2022-10-01T11:29:48.694Z,95760.75
2022-10-01T11:32:49.047Z,95763.44
2022-10-01T11:35:27.556Z,95743.44
2022-10-01T11:38:23.488Z,95744.53
2022-10-01T11:40:55.871Z,95737.19
2022-10-01T11:43:31.656Z,95732.44
2022-10-01T11:46:09.156Z,95739.91
2022-10-01T11:48:46.190Z,95723.34
2022-10-01T11:51:20.642Z,95730.25
2022-10-01T11:53:56.115Z,95734.44
2022-10-01T11:56:53.544Z,95729.69
2022-10-01T11:59:24.122Z,95727.88
2022-10-01T12:02:05.799Z,95721.47
2022-10-01T12:04:50.826Z,95721.31
2022-10-01T12:07:28.689Z,95731.13
2022-10-01T12:09:54.982Z,95727.50
2022-10-01T12:13:00.246Z,95722.03
2022-10-01T12:15:34.365Z,95725.28
2022-10-01T12:18:14.308Z,95728.03
2022-10-01T12:20:48.484Z,95727.19
2022-10-01T12:23:20.312Z,95724.72
2022-10-01T12:25:49.507Z,95729.59
2022-10-01T12:28:23.468Z,95734.50
2022-10-01T12:30:57.208Z,95736.56
2022-10-01T12:33:39.267Z,95729.59
2022-10-01T12:36:32.713Z,95727.91
2022-10-01T12:39:20.871Z,95731.53
2022-10-01T12:42:30.011Z,95732.28
2022-10-01T12:45:07.311Z,95719.75
2022-10-01T12:47:57.033Z,95733.38
2022-10-01T12:50:35.274Z,95722.25
2022-10-01T12:53:35.918Z,95721.00
2022-10-01T12:56:17.307Z,95723.72
2022-10-01T12:58:51.138Z,95729.19
2022-10-01T13:01:40.911Z,95730.94
2022-10-01T13:04:38.374Z,95729.19
2022-10-01T13:07:10.868Z,95720.63
2022-10-01T13:10:08.269Z,95719.38
2022-10-01T13:12:49.993Z,95731.31
2022-10-01T13:15:27.731Z,95731.50
2022-10-01T13:17:58.064Z,95738.91
2022-10-01T13:20:43.467Z,95746.13
2022-10-01T13:23:28.463Z,95746.50
2022-10-01T13:26:07.924Z,95756.38
2022-10-01T13:28:55.128Z,95755.13
2022-10-01T13:31:51.546Z,95764.50
2022-10-01T13:34:26.123Z,95762.06
2022-10-01T13:36:52.916Z,95762.34
2022-10-01T13:39:23.872Z,95764.97
2022-10-01T13:41:57.703Z,95771.16
2022-10-01T13:44:35.109Z,95766.56
2022-10-01T13:47:10.391Z,95759.00
2022-10-01T13:49:37.788Z,95759.91
2022-10-01T13:52:06.353Z,95766.53
2022-10-01T13:54:52.267Z,95762.41
2022-10-01T13:57:38.245Z,95770.41
2022-10-01T14:00:16.509Z,95770.31
2022-10-01T14:02:58.025Z,95771.72
2022-10-01T14:05:34.862Z,95770.28
2022-10-01T14:08:21.463Z,95769.13
2022-10-01T14:11:14.648Z,95763.78
2022-10-01T14:14:05.905Z,95773.25
2022-10-01T14:16:40.247Z,95774.44
2022-10-01T14:19:08.476Z,95766.91
2022-10-01T14:21:46.944Z,95758.66
2022-10-01T14:24:38.057Z,95775.78
2022-10-01T14:27:43.398Z,95779.38
2022-10-01T14:30:15.428Z,95770.13
2022-10-01T14:33:09.260Z,95771.66
2022-10-01T14:35:43.235Z,95755.47
2022-10-01T14:38:18.239Z,95758.72
2022-10-01T14:40:49.054Z,95765.09
2022-10-01T14:43:20.960Z,95764.81
2022-10-01T14:45:59.366Z,95762.59
2022-10-01T14:48:28.080Z,95766.91
2022-10-01T14:50:57.214Z,95766.09
2022-10-01T14:53:26.787Z,95767.38
2022-10-01T14:55:57.803Z,95768.78
2022-10-01T14:58:32.126Z,95771.28
2022-10-01T15:01:00.321Z,95771.28
2022-10-01T15:03:27.270Z,95772.13
2022-10-01T15:06:04.011Z,95781.94
2022-10-01T15:08:40.228Z,95779.06
2022-10-01T15:11:28.043Z,95776.28
2022-10-01T15:14:02.699Z,95765.97
2022-10-01T15:16:30.038Z,95769.44
2022-10-01T15:19:00.059Z,95781.47
2022-10-01T15:21:46.950Z,95784.59
2022-10-01T15:24:19.084Z,95781.22
2022-10-01T15:26:48.205Z,95784.00
2022-10-01T15:29:16.623Z,95791.06
2022-10-01T15:31:45.093Z,95782.13
2022-10-01T15:34:14.505Z,95790.78
2022-10-01T15:36:42.055Z,95794.13
2022-10-01T15:39:31.818Z,95794.47
2022-10-01T15:42:01.100Z,95784.13
2022-10-01T15:44:49.662Z,95800.06
2022-10-01T15:47:35.244Z,95796.47
2022-10-01T15:50:11.114Z,95803.06
2022-10-01T15:53:28.572Z,95801.06
2022-10-01T15:55:57.778Z,95807.75
2022-10-01T15:58:32.432Z,95807.41
2022-10-01T16:01:10.803Z,95806.81
2022-10-01T16:03:48.377Z,95810.88
2022-10-01T16:06:23.540Z,95817.03
2022-10-01T16:09:02.895Z,95828.09
2022-10-01T16:11:34.180Z,95827.34
2022-10-01T16:14:39.196Z,95821.38
2022-10-01T16:17:27.094Z,95833.91
2022-10-01T16:20:22.016Z,95839.22
2022-10-01T16:22:48.835Z,95840.88
2022-10-01T16:25:19.415Z,95841.16
2022-10-01T16:27:48.842Z,95846.78
2022-10-01T16:30:17.995Z,95850.44
2022-10-01T16:32:44.646Z,95847.47
2022-10-01T16:35:32.864Z,95856.25
2022-10-01T16:37:59.183Z,95858.75
2022-10-01T16:40:28.193Z,95862.44
2022-10-01T16:42:55.081Z,95864.72
2022-10-01T16:45:26.718Z,95874.13
2022-10-01T16:47:56.843Z,95869.66
2022-10-01T16:50:24.020Z,95868.03
2022-10-01T16:52:54.612Z,95866.56
2022-10-01T16:55:32.343Z,95873.13
2022-10-01T16:57:58.651Z,95876.78
2022-10-01T17:00:27.187Z,95874.31
2022-10-01T17:02:55.139Z,95879.63
2022-10-01T17:05:40.116Z,95886.16
2022-10-01T17:08:12.412Z,95887.56
2022-10-01T17:10:57.187Z,95904.88
2022-10-01T17:13:25.006Z,95894.66
2022-10-01T17:15:52.096Z,95897.06
2022-10-01T17:18:19.331Z,95907.09
2022-10-01T17:20:48.515Z,95907.69
2022-10-01T17:23:17.558Z,95904.81
2022-10-01T17:25:45.288Z,95916.47
2022-10-01T17:28:14.289Z,95915.50
2022-10-01T17:30:42.079Z,95908.97
2022-10-01T17:33:11.800Z,95918.78
2022-10-01T17:35:46.567Z,95927.56
2022-10-01T17:38:13.409Z,95930.00
2022-10-01T17:40:41.336Z,95928.59
2022-10-01T17:43:10.331Z,95936.75
2022-10-01T17:45:36.731Z,95943.69
2022-10-01T17:48:03.903Z,95942.25
2022-10-01T17:50:30.238Z,95949.78
2022-10-01T17:52:56.725Z,95958.81
2022-10-01T17:55:23.720Z,95957.19
2022-10-01T17:57:50.929Z,95957.19
2022-10-01T18:00:18.211Z,95956.34
2022-10-01T18:02:45.158Z,95963.16
2022-10-01T18:05:14.330Z,95968.53
2022-10-01T18:07:42.327Z,95973.63
2022-10-01T18:10:11.735Z,95965.81
2022-10-01T18:12:38.177Z,95974.25
2022-10-01T18:15:05.364Z,95979.31
2022-10-01T18:17:32.515Z,95983.81
2022-10-01T18:19:59.170Z,95973.19
2022-10-01T18:22:27.076Z,95990.59
2022-10-01T18:24:53.426Z,95987.94
2022-10-01T18:27:19.879Z,95992.44
2022-10-01T18:29:46.613Z,96000.16
2022-10-01T18:32:31.088Z,95999.97
2022-10-01T18:35:00.787Z,96011.41
2022-10-01T18:37:40.346Z,96005.47
2022-10-01T18:40:18.979Z,95997.75
2022-10-01T18:43:20.432Z,96011.59
2022-10-01T18:46:17.158Z,96016.91
2022-10-01T18:48:59.614Z,96016.91
2022-10-01T18:51:51.855Z,96022.03
2022-10-01T18:54:38.391Z,96023.41
2022-10-01T18:57:21.244Z,96032.00
2022-10-01T18:59:53.373Z,96042.22
2022-10-01T19:02:40.815Z,96038.09
2022-10-01T19:05:32.197Z,96039.34
2022-10-01T19:08:17.479Z,96040.63
2022-10-01T19:11:05.534Z,96045.53
2022-10-01T19:13:41.844Z,96045.94
2022-10-01T19:16:14.804Z,96048.44
2022-10-01T19:19:03.535Z,96037.84
2022-10-01T19:21:36.624Z,96050.47
2022-10-01T19:24:32.822Z,96060.09
2022-10-01T19:27:10.012Z,96063.09
2022-10-01T19:29:46.356Z,96072.94
2022-10-01T19:32:18.248Z,96073.34
2022-10-01T19:34:52.095Z,96071.72
2022-10-01T19:37:33.978Z,96097.47
2022-10-01T19:40:22.234Z,96080.31
2022-10-01T19:43:16.141Z,96087.00
2022-10-01T19:45:50.379Z,96100.13
2022-10-01T19:48:29.732Z,96113.81
2022-10-01T19:51:07.576Z,96111.38
2022-10-01T19:53:37.258Z,96109.75
2022-10-01T19:56:04.362Z,96116.50
2022-10-01T19:58:33.040Z,96122.03
2022-10-01T20:01:03.393Z,96127.34
2022-10-01T20:03:45.711Z,96129.78
2022-10-01T20:06:25.236Z,96141.22
2022-10-01T20:09:14.107Z,96148.09
2022-10-01T20:11:47.907Z,96144.81
2022-10-01T20:14:57.267Z,96162.16
2022-10-01T20:17:33.151Z,96166.06
2022-10-01T20:20:18.506Z,96173.03
2022-10-01T20:23:00.571Z,96159.16
2022-10-01T20:25:35.150Z,96175.06
2022-10-01T20:28:25.233Z,96179.50
2022-10-01T20:31:13.985Z,96178.31
2022-10-01T20:34:19.691Z,96178.75
2022-10-01T20:36:48.708Z,96186.09
2022-10-01T20:39:41.338Z,96192.28
2022-10-01T20:42:29.369Z,96192.69
2022-10-01T20:44:56.213Z,96180.41
2022-10-01T20:47:30.684Z,96194.31
2022-10-01T20:50:09.535Z,96204.94
2022-10-01T20:52:47.955Z,96205.34
2022-10-01T20:55:18.568Z,96207.59
2022-10-01T20:57:50.608Z,96216.34
2022-10-01T21:00:21.508Z,96210.63
2022-10-01T21:02:59.728Z,96208.56
2022-10-01T21:05:29.603Z,96206.97
2022-10-01T21:08:02.335Z,96213.50
2022-10-01T21:10:38.680Z,96214.72
2022-10-01T21:13:29.280Z,96212.91
2022-10-01T21:16:37.905Z,96222.88
2022-10-01T21:19:59.040Z,96222.88
2022-10-01T21:22:32.853Z,96246.78
2022-10-01T21:25:02.299Z,96240.41
2022-10-01T21:27:49.977Z,96247.53
2022-10-01T21:30:19.591Z,96253.25
2022-10-01T21:33:13.044Z,96246.50
2022-10-01T21:35:49.495Z,96266.06
2022-10-01T21:38:40.071Z,96273.78
2022-10-01T21:41:34.721Z,96277.03
2022-10-01T21:44:19.854Z,96275.00
2022-10-01T21:46:59.196Z,96288.09
2022-10-01T21:49:48.770Z,96288.50
2022-10-01T21:52:46.558Z,96288.94
2022-10-01T21:55:43.740Z,96283.84
2022-10-01T21:58:11.236Z,96283.25
2022-10-01T22:00:37.963Z,96277.16
2022-10-01T22:03:27.690Z,96274.09
2022-10-01T22:06:09.722Z,96297.97
2022-10-01T22:08:55.017Z,96288.41
2022-10-01T22:11:25.356Z,96309.66
2022-10-01T22:14:02.547Z,96309.84
2022-10-01T22:16:37.867Z,96307.78
2022-10-01T22:19:14.331Z,96320.63
2022-10-01T22:21:56.543Z,96322.25
2022-10-01T22:24:31.212Z,96320.63
2022-10-01T22:27:09.375Z,96339.00
2022-10-01T22:29:41.213Z,96327.56
2022-10-01T22:32:11.195Z,96340.63
2022-10-01T22:34:42.199Z,96348.19
2022-10-01T22:37:22.459Z,96349.84
2022-10-01T22:39:55.799Z,96328.16
2022-10-01T22:42:33.330Z,96345.94
2022-10-01T22:45:08.999Z,96350.00
2022-10-01T22:47:48.278Z,96354.91
2022-10-01T22:50:39.265Z,96357.56
2022-10-01T22:53:11.895Z,96357.56
2022-10-01T22:55:57.467Z,96362.06
2022-10-01T22:58:45.488Z,96363.50
2022-10-01T23:01:33.087Z,96360.03
2022-10-01T23:04:30.836Z,96364.94
2022-10-01T23:07:23.246Z,96373.94
2022-10-01T23:10:07.312Z,96365.38
2022-10-01T23:12:59.567Z,96368.25
2022-10-01T23:15:36.379Z,96363.31
2022-10-01T23:18:05.455Z,96376.38
2022-10-01T23:20:37.680Z,96381.50
2022-10-01T23:23:24.230Z,96363.72
2022-10-01T23:26:36.795Z,96387.78
2022-10-01T23:29:48.122Z,96379.84
2022-10-01T23:32:25.680Z,96379.00
2022-10-01T23:35:01.239Z,96392.88
2022-10-01T23:37:58.692Z,96388.63
2022-10-01T23:40:37.205Z,96374.72
2022-10-01T23:43:12.830Z,96382.66
2022-10-01T23:45:55.383Z,96393.94
2022-10-01T23:48:33.493Z,96393.50
2022-10-01T23:51:21.917Z,96397.19
2022-10-01T23:53:53.175Z,96396.38
2022-10-01T23:56:48.298Z,96404.16
2022-10-01T23:59:33.349Z,96406.19
